Flight Track Log - Related Links

Times and Time Zones

All times are in EDT time to prevent confusion due to time zone crossing. See the ASA65 flight status page for this flight to view local times or setup timezone preferences in your user account.


Time Position Orientation Groundspeed Altitude Reporting Facility
EDT Latitude Longitude Course Direction KTS MPH feet Rate Location/Type
Sat 04:43:20 PM 58.2833 -134.4167 134° Southeast 210 242 5,700  Level Anchorage Center
Sat 04:44:20 PM 58.2333 -134.3167 134° Southeast 250 288 8,300 2,571 Climbing Anchorage Center
Sat 04:45:00 PM 58.6248 -135.5814 297° West  Level FlightAware Approximate
Sat 04:45:19 PM 58.1833 -134.3333 190° South 260 299 10,800  Level Anchorage Center
Sat 04:46:00 PM 58.6694 -135.7538 297° West  Level FlightAware Approximate
Sat 04:46:20 PM 58.1833 -134.4833 270° West 340 391 12,000  Level Anchorage Center
Sat 04:47:00 PM 58.7138 -135.9267 296° West  Level FlightAware Approximate
Sat 04:48:20 PM 58.2833 -134.8000 301° West 380 437 17,500  Level Anchorage Center
Sat 04:49:20 PM 58.3667 -134.9167 324° Northwest 390 449 20,100 2,500 Climbing Anchorage Center
Sat 04:50:20 PM 58.4333 -135.1000 305° West 400 460 22,500 2,050 Climbing Anchorage Center
Sat 04:51:20 PM 58.4833 -135.2833 298° West 410 472 24,200 1,800 Climbing Anchorage Center
Sat 04:52:20 PM 58.5500 -135.4667 305° West 420 483 26,100 1,600 Climbing Anchorage Center
Sat 04:53:20 PM 58.6167 -135.6667 303° West 430 495 27,400 1,289 Climbing Anchorage Center
Sat 04:54:21 PM 58.6833 -135.8667 303° West 440 506 28,700 1,884 Climbing Anchorage Center
Sat 04:55:21 PM 58.7500 -136.0667 303° West 430 495 31,200 2,050 Climbing Anchorage Center
Sat 04:56:21 PM 58.8000 -136.2500 298° West 410 472 32,800 1,400 Climbing Anchorage Center
Sat 04:57:21 PM 58.8333 -136.4333 289° West 400 460 34,000 600 Climbing Anchorage Center
Sat 04:58:21 PM 58.8833 -136.6333 296° West 400 460 34,000  Level Anchorage Center
Sat 04:59:21 PM 58.9333 -136.8333 296° West 410 472 34,000  Level Anchorage Center
Sat 05:00:21 PM 58.9667 -137.0333 288° West 400 460 34,000  Level Anchorage Center
Sat 05:01:21 PM 59.0167 -137.2333 296° West 400 460 34,000  Level Anchorage Center
Sat 05:02:22 PM 59.0667 -137.4333 296° West 400 460 34,000  Level Anchorage Center
Sat 05:03:21 PM 59.1000 -137.6333 288° West 400 460 34,000  Level Anchorage Center
Sat 05:04:21 PM 59.1500 -137.8333 296° West 410 472 34,000  Level Anchorage Center
Sat 05:05:22 PM 59.1833 -138.0333 288° West 400 460 34,000  Level Anchorage Center
Sat 05:06:22 PM 59.2333 -138.2333 296° West 400 460 34,000  Level Anchorage Center
Sat 05:07:22 PM 59.2833 -138.4333 296° West 400 460 34,000  Level Anchorage Center
Sat 05:08:22 PM 59.3167 -138.6333 288° West 400 460 34,000  Level Anchorage Center
Sat 05:09:22 PM 59.3667 -138.8333 296° West 410 472 34,000  Level Anchorage Center
Sat 05:10:22 PM 59.4000 -139.0500 287° West 410 472 34,000  Level Anchorage Center
Sat 05:11:22 PM 59.4500 -139.2500 296° West 400 460 34,000  Level Anchorage Center
Sat 05:12:22 PM 59.4833 -139.4500 288° West 400 460 34,000  Level Anchorage Center
Sat 05:13:22 PM 59.5167 -139.6667 287° West 410 472 34,000  Level Anchorage Center
Sat 05:14:23 PM 59.5667 -139.8667 296° West 410 472 34,000  Level Anchorage Center
Sat 05:15:22 PM 59.6000 -140.0500 290° West 400 460 34,000  Level Anchorage Center
Sat 05:16:23 PM 59.6333 -140.2667 287° West 410 472 34,000  Level Anchorage Center
Sat 05:17:23 PM 59.6833 -140.4833 295° West 410 472 34,000  Level Anchorage Center
Sat 05:18:22 PM 59.7167 -140.6833 288° West 410 472 34,000  Level Anchorage Center
Sat 05:19:23 PM 59.7667 -140.9000 295° West 420 483 34,000  Level Anchorage Center
Sat 05:20:23 PM 59.8000 -141.1167 287° West 410 472 34,000  Level Anchorage Center
Sat 05:21:23 PM 59.8500 -141.3500 293° West 420 483 34,000  Level Anchorage Center
Sat 05:22:23 PM 59.8833 -141.5667 287° West 420 483 34,000  Level Anchorage Center
Sat 05:23:23 PM 59.9167 -141.7833 287° West 420 483 34,000  Level Anchorage Center
Sat 05:24:23 PM 59.9500 -142.0000 287° West 410 472 34,000  Level Anchorage Center
Sat 05:25:23 PM 60.0000 -142.2167 295° West 410 472 34,000  Level Anchorage Center
Sat 05:26:23 PM 60.0333 -142.4333 287° West 420 483 34,000  Level Anchorage Center
Sat 05:27:23 PM 60.0667 -142.6500 287° West 400 460 34,000  Level Anchorage Center
Sat 05:28:24 PM 60.1000 -142.8667 287° West 410 472 34,000  Level Anchorage Center
Sat 05:29:24 PM 60.1500 -143.1000 293° West 420 483 34,000  Level Anchorage Center
Sat 05:30:24 PM 60.1833 -143.3333 286° West 420 483 34,000  Level Anchorage Center
Sat 05:31:24 PM 60.2167 -143.5667 286° West 420 483 34,000  Level Anchorage Center
Sat 05:32:24 PM 60.2500 -143.8000 286° West 430 495 34,000  Level Anchorage Center
Sat 05:33:24 PM 60.2833 -144.0167 287° West 420 483 34,000  Level Anchorage Center
Sat 05:34:24 PM 60.3333 -144.2500 293° West 430 495 34,000  Level Anchorage Center
Sat 05:35:25 PM 60.3667 -144.4833 286° West 420 483 34,000  Level Anchorage Center
Sat 05:36:25 PM 60.4000 -144.7000 287° West 420 483 34,000  Level Anchorage Center
Sat 05:37:24 PM 60.4333 -144.9333 286° West 420 483 34,000  Level Anchorage Center
Sat 05:38:25 PM 60.4667 -145.1667 286° West 420 483 34,000  Level Anchorage Center
Sat 05:39:25 PM 60.5000 -145.3833 287° West 420 483 34,000  Level Anchorage Center
Sat 05:40:25 PM 60.5333 -145.6167 286° West 410 472 34,000  Level Anchorage Center
Sat 05:41:25 PM 60.5667 -145.8333 287° West 410 472 34,000  Level Anchorage Center
Sat 05:42:25 PM 60.5833 -146.0667 278° West 410 472 34,000  Level Anchorage Center
Sat 05:43:25 PM 60.6167 -146.3000 286° West 410 472 34,000  Level Anchorage Center
Sat 05:44:25 PM 60.6500 -146.5167 288° West 420 483 34,000  Level Anchorage Center
Sat 05:45:25 PM 60.6833 -146.7500 286° West 420 483 34,000  Level Anchorage Center
Sat 05:46:25 PM 60.7167 -146.9833 286° West 410 472 34,000  Level Anchorage Center
Sat 05:47:25 PM 60.7333 -147.2000 279° West 420 483 34,000 -1,300 Level Anchorage Center
Sat 05:48:25 PM 60.7667 -147.4667 284° West 420 483 31,400 -2,678 Descending Anchorage Center
Sat 05:49:26 PM 60.8000 -147.6833 288° West 410 472 28,600 -2,628 Descending Anchorage Center
Sat 05:50:26 PM 60.8333 -147.8833 289° West 400 460 26,100 -2,250 Descending Anchorage Center
Sat 05:51:26 PM 60.8500 -148.1000 279° West 390 449 24,100 -2,400 Descending Anchorage Center
Sat 05:52:26 PM 60.8833 -148.3000 289° West 360 414 21,300 -2,450 Descending Anchorage Center
Sat 05:53:26 PM 60.9000 -148.5167 279° West 350 403 19,200 -2,250 Descending Anchorage Center
Sat 05:54:26 PM 60.9167 -148.7000 281° West 340 391 16,800 -2,350 Descending Anchorage Center
Sat 05:55:26 PM 60.9500 -148.9000 289° West 340 391 14,500 -2,300 Descending Anchorage Center
Sat 05:57:00 PM 60.9799 -149.2157 281° West  Level FlightAware Approximate
Sat 06:04:00 PM 61.1565 -150.0291 65° Northeast  Level FlightAware Approximate
Sat 06:05:00 PM 61.1667 -149.9833 65° Northeast  Level FlightAware Approximate
Sat 06:06:00 PM 61.1741 -149.9982 65° Northeast  Level Estimated
Sat 06:07:00 PM 61.1741 -149.9982 65° Northeast  Level Estimated
Sat 06:08:00 PM 61.1741 -149.9982 65° Northeast  Level Estimated
Sat 06:09:00 PM 61.1741 -149.9982 65° Northeast  Level Estimated
Sat 06:10:00 PM 61.1741 -149.9982 65° Northeast  Level Estimated
Sat 06:11:00 PM 61.1741 -149.9982 65° Northeast  Level Estimated
Sat 06:12:00 PM 61.1741 -149.9982 65° Northeast  Level Estimated
Sat 06:13:00 PM 61.1741 -149.9982 65° Northeast  Level Estimated
Sat 06:14:00 PM 61.1741 -149.9982 65° Northeast  Level Estimated
Sat 06:15:00 PM 61.1741 -149.9982 65° Northeast  Level Estimated

Login

Don't have an account? Register now (free) for customized features, flight alerts, and more!